sensor_id;sensor_type;location;lat;lon;timestamp;P1;durP1;ratioP1;P2;durP2;ratioP2
60502;SDS011;51448;51.660;5.824;2024-01-15T00:02:15;30.70;;;13.52;;
60502;SDS011;51448;51.660;5.824;2024-01-15T00:04:43;23.27;;;13.43;;
60502;SDS011;51448;51.660;5.824;2024-01-15T00:07:11;24.55;;;13.30;;
60502;SDS011;51448;51.660;5.824;2024-01-15T00:09:39;23.90;;;11.77;;
60502;SDS011;51448;51.660;5.824;2024-01-15T00:12:07;22.33;;;11.55;;
60502;SDS011;51448;51.660;5.824;2024-01-15T00:14:36;19.15;;;10.40;;
60502;SDS011;51448;51.660;5.824;2024-01-15T00:17:04;19.15;;;10.02;;
60502;SDS011;51448;51.660;5.824;2024-01-15T00:19:31;21.25;;;11.40;;
60502;SDS011;51448;51.660;5.824;2024-01-15T00:21:59;20.60;;;10.05;;
60502;SDS011;51448;51.660;5.824;2024-01-15T00:24:27;12.90;;;9.00;;
60502;SDS011;51448;51.660;5.824;2024-01-15T00:26:55;11.98;;;7.40;;
60502;SDS011;51448;51.660;5.824;2024-01-15T00:29:23;14.60;;;7.75;;
60502;SDS011;51448;51.660;5.824;2024-01-15T00:31:50;14.00;;;8.35;;
60502;SDS011;51448;51.660;5.824;2024-01-15T00:34:18;16.58;;;8.38;;
60502;SDS011;51448;51.660;5.824;2024-01-15T00:36:46;17.55;;;8.77;;
60502;SDS011;51448;51.660;5.824;2024-01-15T00:39:13;15.38;;;9.18;;
60502;SDS011;51448;51.660;5.824;2024-01-15T00:41:41;16.23;;;9.82;;
60502;SDS011;51448;51.660;5.824;2024-01-15T00:44:08;14.00;;;8.88;;
60502;SDS011;51448;51.660;5.824;2024-01-15T00:46:43;14.48;;;9.07;;
60502;SDS011;51448;51.660;5.824;2024-01-15T00:49:13;11.38;;;7.57;;
60502;SDS011;51448;51.660;5.824;2024-01-15T00:51:41;13.70;;;8.43;;
60502;SDS011;51448;51.660;5.824;2024-01-15T00:54:10;9.27;;;7.40;;
60502;SDS011;51448;51.660;5.824;2024-01-15T00:56:37;12.10;;;6.95;;
60502;SDS011;51448;51.660;5.824;2024-01-15T00:59:05;12.85;;;7.50;;
60502;SDS011;51448;51.660;5.824;2024-01-15T01:01:33;10.48;;;7.25;;
60502;SDS011;51448;51.660;5.824;2024-01-15T01:04:00;10.40;;;6.50;;
60502;SDS011;51448;51.660;5.824;2024-01-15T01:06:28;10.50;;;6.95;;
60502;SDS011;51448;51.660;5.824;2024-01-15T01:09:00;11.93;;;6.55;;
60502;SDS011;51448;51.660;5.824;2024-01-15T01:11:27;9.25;;;6.53;;
60502;SDS011;51448;51.660;5.824;2024-01-15T01:13:55;12.80;;;6.35;;
60502;SDS011;51448;51.660;5.824;2024-01-15T01:16:23;11.75;;;6.07;;
60502;SDS011;51448;51.660;5.824;2024-01-15T01:18:51;12.57;;;6.00;;
60502;SDS011;51448;51.660;5.824;2024-01-15T01:21:19;14.20;;;6.25;;
60502;SDS011;51448;51.660;5.824;2024-01-15T01:23:52;8.85;;;6.47;;
60502;SDS011;51448;51.660;5.824;2024-01-15T01:26:20;8.85;;;6.22;;
60502;SDS011;51448;51.660;5.824;2024-01-15T01:28:47;11.20;;;6.45;;
60502;SDS011;51448;51.660;5.824;2024-01-15T01:31:15;9.02;;;6.35;;
60502;SDS011;51448;51.660;5.824;2024-01-15T01:33:44;11.63;;;6.70;;
60502;SDS011;51448;51.660;5.824;2024-01-15T01:36:11;12.82;;;7.25;;
60502;SDS011;51448;51.660;5.824;2024-01-15T01:38:39;14.25;;;7.88;;
60502;SDS011;51448;51.660;5.824;2024-01-15T01:41:07;12.55;;;7.88;;
60502;SDS011;51448;51.660;5.824;2024-01-15T01:43:35;20.40;;;9.10;;
60502;SDS011;51448;51.660;5.824;2024-01-15T01:46:02;18.70;;;8.60;;
60502;SDS011;51448;51.660;5.824;2024-01-15T01:48:30;15.57;;;8.82;;
60502;SDS011;51448;51.660;5.824;2024-01-15T01:51:00;16.73;;;8.48;;
60502;SDS011;51448;51.660;5.824;2024-01-15T01:53:32;16.17;;;8.75;;
60502;SDS011;51448;51.660;5.824;2024-01-15T01:56:05;19.33;;;7.90;;
60502;SDS011;51448;51.660;5.824;2024-01-15T01:58:33;20.23;;;8.25;;
60502;SDS011;51448;51.660;5.824;2024-01-15T02:01:01;14.20;;;7.70;;
60502;SDS011;51448;51.660;5.824;2024-01-15T02:03:30;16.05;;;7.40;;
60502;SDS011;51448;51.660;5.824;2024-01-15T02:05:59;21.10;;;8.93;;
60502;SDS011;51448;51.660;5.824;2024-01-15T02:08:30;14.02;;;8.40;;
60502;SDS011;51448;51.660;5.824;2024-01-15T02:10:57;16.25;;;6.70;;
60502;SDS011;51448;51.660;5.824;2024-01-15T02:13:25;10.80;;;7.00;;
60502;SDS011;51448;51.660;5.824;2024-01-15T02:15:52;12.85;;;6.05;;
60502;SDS011;51448;51.660;5.824;2024-01-15T02:18:20;10.93;;;5.57;;
60502;SDS011;51448;51.660;5.824;2024-01-15T02:20:48;13.13;;;5.25;;
60502;SDS011;51448;51.660;5.824;2024-01-15T02:23:16;10.52;;;4.35;;
60502;SDS011;51448;51.660;5.824;2024-01-15T02:25:46;8.85;;;3.92;;
60502;SDS011;51448;51.660;5.824;2024-01-15T02:28:15;11.57;;;3.78;;
60502;SDS011;51448;51.660;5.824;2024-01-15T02:30:45;11.77;;;3.22;;
60502;SDS011;51448;51.660;5.824;2024-01-15T02:33:13;9.13;;;2.80;;
60502;SDS011;51448;51.660;5.824;2024-01-15T02:35:41;7.20;;;3.35;;
60502;SDS011;51448;51.660;5.824;2024-01-15T02:38:08;5.90;;;2.45;;
60502;SDS011;51448;51.660;5.824;2024-01-15T02:40:36;11.15;;;2.80;;
60502;SDS011;51448;51.660;5.824;2024-01-15T02:43:04;5.65;;;2.22;;
60502;SDS011;51448;51.660;5.824;2024-01-15T02:45:31;8.77;;;2.97;;
60502;SDS011;51448;51.660;5.824;2024-01-15T02:47:59;6.57;;;2.42;;
60502;SDS011;51448;51.660;5.824;2024-01-15T02:50:27;5.85;;;2.72;;
60502;SDS011;51448;51.660;5.824;2024-01-15T02:52:54;6.55;;;2.03;;
60502;SDS011;51448;51.660;5.824;2024-01-15T02:55:22;8.75;;;2.10;;
60502;SDS011;51448;51.660;5.824;2024-01-15T02:57:49;12.43;;;2.88;;
60502;SDS011;51448;51.660;5.824;2024-01-15T03:00:17;9.27;;;2.70;;
60502;SDS011;51448;51.660;5.824;2024-01-15T03:02:45;9.02;;;2.65;;
60502;SDS011;51448;51.660;5.824;2024-01-15T03:05:15;7.63;;;2.97;;
60502;SDS011;51448;51.660;5.824;2024-01-15T03:07:43;8.70;;;2.35;;
60502;SDS011;51448;51.660;5.824;2024-01-15T03:10:11;6.00;;;2.85;;
60502;SDS011;51448;51.660;5.824;2024-01-15T03:12:38;7.57;;;2.45;;
60502;SDS011;51448;51.660;5.824;2024-01-15T03:15:06;9.50;;;3.78;;
60502;SDS011;51448;51.660;5.824;2024-01-15T03:17:34;10.18;;;3.22;;
60502;SDS011;51448;51.660;5.824;2024-01-15T03:20:01;9.55;;;2.28;;
60502;SDS011;51448;51.660;5.824;2024-01-15T03:22:30;7.30;;;2.33;;
60502;SDS011;51448;51.660;5.824;2024-01-15T03:24:58;8.52;;;3.15;;
60502;SDS011;51448;51.660;5.824;2024-01-15T03:27:25;8.95;;;2.53;;
60502;SDS011;51448;51.660;5.824;2024-01-15T03:29:53;7.68;;;2.80;;
60502;SDS011;51448;51.660;5.824;2024-01-15T03:32:20;7.32;;;2.60;;
60502;SDS011;51448;51.660;5.824;2024-01-15T03:34:48;6.63;;;3.22;;
60502;SDS011;51448;51.660;5.824;2024-01-15T03:37:16;7.80;;;2.17;;
60502;SDS011;51448;51.660;5.824;2024-01-15T03:39:43;7.80;;;3.45;;
60502;SDS011;51448;51.660;5.824;2024-01-15T03:42:11;6.70;;;2.13;;
60502;SDS011;51448;51.660;5.824;2024-01-15T03:44:39;7.45;;;2.20;;
60502;SDS011;51448;51.660;5.824;2024-01-15T03:47:06;6.65;;;2.13;;
60502;SDS011;51448;51.660;5.824;2024-01-15T03:49:34;10.23;;;2.85;;
60502;SDS011;51448;51.660;5.824;2024-01-15T03:52:01;6.28;;;1.83;;
60502;SDS011;51448;51.660;5.824;2024-01-15T03:54:29;8.20;;;2.65;;
60502;SDS011;51448;51.660;5.824;2024-01-15T03:56:57;8.60;;;2.00;;
60502;SDS011;51448;51.660;5.824;2024-01-15T03:59:24;7.40;;;2.30;;
60502;SDS011;51448;51.660;5.824;2024-01-15T04:01:52;7.07;;;2.38;;
60502;SDS011;51448;51.660;5.824;2024-01-15T04:04:20;11.30;;;1.80;;
60502;SDS011;51448;51.660;5.824;2024-01-15T04:06:48;11.50;;;3.03;;
60502;SDS011;51448;51.660;5.824;2024-01-15T04:09:15;6.75;;;1.70;;
60502;SDS011;51448;51.660;5.824;2024-01-15T04:11:43;6.10;;;2.33;;
60502;SDS011;51448;51.660;5.824;2024-01-15T04:14:11;11.80;;;2.83;;
60502;SDS011;51448;51.660;5.824;2024-01-15T04:16:38;3.75;;;1.65;;
60502;SDS011;51448;51.660;5.824;2024-01-15T04:19:06;9.05;;;2.33;;
60502;SDS011;51448;51.660;5.824;2024-01-15T04:21:34;10.27;;;2.38;;
60502;SDS011;51448;51.660;5.824;2024-01-15T04:24:01;6.60;;;1.63;;
60502;SDS011;51448;51.660;5.824;2024-01-15T04:26:32;12.20;;;2.30;;
60502;SDS011;51448;51.660;5.824;2024-01-15T04:29:00;7.28;;;1.92;;
60502;SDS011;51448;51.660;5.824;2024-01-15T04:31:28;5.22;;;1.77;;
60502;SDS011;51448;51.660;5.824;2024-01-15T04:33:56;13.43;;;2.28;;
60502;SDS011;51448;51.660;5.824;2024-01-15T04:36:24;5.32;;;1.60;;
60502;SDS011;51448;51.660;5.824;2024-01-15T04:38:51;6.43;;;2.10;;
60502;SDS011;51448;51.660;5.824;2024-01-15T04:41:19;7.20;;;1.55;;
60502;SDS011;51448;51.660;5.824;2024-01-15T04:43:47;9.55;;;2.08;;
60502;SDS011;51448;51.660;5.824;2024-01-15T04:46:14;9.30;;;1.58;;
60502;SDS011;51448;51.660;5.824;2024-01-15T04:48:42;4.88;;;1.42;;
60502;SDS011;51448;51.660;5.824;2024-01-15T04:51:09;6.00;;;1.90;;
60502;SDS011;51448;51.660;5.824;2024-01-15T04:53:37;14.40;;;1.83;;
60502;SDS011;51448;51.660;5.824;2024-01-15T04:56:05;5.63;;;2.20;;
60502;SDS011;51448;51.660;5.824;2024-01-15T04:58:33;6.80;;;1.77;;
60502;SDS011;51448;51.660;5.824;2024-01-15T05:01:00;6.30;;;3.03;;
60502;SDS011;51448;51.660;5.824;2024-01-15T05:03:28;10.05;;;2.83;;
60502;SDS011;51448;51.660;5.824;2024-01-15T05:05:57;16.35;;;4.05;;
60502;SDS011;51448;51.660;5.824;2024-01-15T05:08:24;14.90;;;2.60;;
60502;SDS011;51448;51.660;5.824;2024-01-15T05:10:52;10.07;;;2.47;;
60502;SDS011;51448;51.660;5.824;2024-01-15T05:13:19;15.63;;;3.28;;
60502;SDS011;51448;51.660;5.824;2024-01-15T05:15:47;9.68;;;2.90;;
60502;SDS011;51448;51.660;5.824;2024-01-15T05:18:15;10.75;;;3.17;;
60502;SDS011;51448;51.660;5.824;2024-01-15T05:20:43;9.20;;;3.25;;
60502;SDS011;51448;51.660;5.824;2024-01-15T05:23:11;6.22;;;2.13;;
60502;SDS011;51448;51.660;5.824;2024-01-15T05:25:39;8.82;;;1.88;;
60502;SDS011;51448;51.660;5.824;2024-01-15T05:28:07;8.70;;;2.80;;
60502;SDS011;51448;51.660;5.824;2024-01-15T05:30:35;11.80;;;1.80;;
60502;SDS011;51448;51.660;5.824;2024-01-15T05:33:02;12.98;;;2.00;;
60502;SDS011;51448;51.660;5.824;2024-01-15T05:35:30;9.55;;;2.58;;
60502;SDS011;51448;51.660;5.824;2024-01-15T05:37:58;7.35;;;1.80;;
60502;SDS011;51448;51.660;5.824;2024-01-15T05:40:25;4.68;;;2.15;;
60502;SDS011;51448;51.660;5.824;2024-01-15T05:42:53;8.13;;;1.65;;
60502;SDS011;51448;51.660;5.824;2024-01-15T05:45:20;4.82;;;1.50;;
60502;SDS011;51448;51.660;5.824;2024-01-15T05:47:48;8.98;;;2.03;;
60502;SDS011;51448;51.660;5.824;2024-01-15T05:50:16;6.35;;;1.98;;
60502;SDS011;51448;51.660;5.824;2024-01-15T05:52:43;10.15;;;1.80;;
60502;SDS011;51448;51.660;5.824;2024-01-15T05:55:11;7.05;;;2.15;;
60502;SDS011;51448;51.660;5.824;2024-01-15T05:57:39;6.15;;;2.00;;
60502;SDS011;51448;51.660;5.824;2024-01-15T06:00:06;9.13;;;2.25;;
60502;SDS011;51448;51.660;5.824;2024-01-15T06:02:39;6.45;;;2.15;;
60502;SDS011;51448;51.660;5.824;2024-01-15T06:05:07;5.00;;;2.05;;
60502;SDS011;51448;51.660;5.824;2024-01-15T06:07:35;7.68;;;2.33;;
60502;SDS011;51448;51.660;5.824;2024-01-15T06:10:05;8.32;;;2.67;;
60502;SDS011;51448;51.660;5.824;2024-01-15T06:12:33;10.98;;;2.30;;
60502;SDS011;51448;51.660;5.824;2024-01-15T06:15:01;3.83;;;2.10;;
60502;SDS011;51448;51.660;5.824;2024-01-15T06:17:29;9.18;;;2.05;;
60502;SDS011;51448;51.660;5.824;2024-01-15T06:19:57;8.15;;;2.15;;
60502;SDS011;51448;51.660;5.824;2024-01-15T06:22:25;4.85;;;2.13;;
60502;SDS011;51448;51.660;5.824;2024-01-15T06:24:55;4.38;;;2.00;;
60502;SDS011;51448;51.660;5.824;2024-01-15T06:27:23;5.63;;;2.05;;
60502;SDS011;51448;51.660;5.824;2024-01-15T06:29:50;5.03;;;2.53;;
60502;SDS011;51448;51.660;5.824;2024-01-15T06:32:18;4.75;;;2.60;;
60502;SDS011;51448;51.660;5.824;2024-01-15T06:34:46;6.60;;;2.92;;
60502;SDS011;51448;51.660;5.824;2024-01-15T06:37:13;9.88;;;3.97;;
60502;SDS011;51448;51.660;5.824;2024-01-15T06:39:41;6.82;;;3.35;;
60502;SDS011;51448;51.660;5.824;2024-01-15T06:42:09;7.68;;;2.83;;
60502;SDS011;51448;51.660;5.824;2024-01-15T06:44:36;5.50;;;2.65;;
60502;SDS011;51448;51.660;5.824;2024-01-15T06:47:05;5.40;;;2.97;;
60502;SDS011;51448;51.660;5.824;2024-01-15T06:49:32;5.82;;;2.63;;
60502;SDS011;51448;51.660;5.824;2024-01-15T06:52:00;6.43;;;2.83;;
60502;SDS011;51448;51.660;5.824;2024-01-15T06:54:28;7.05;;;2.70;;
60502;SDS011;51448;51.660;5.824;2024-01-15T06:56:55;5.68;;;3.03;;
60502;SDS011;51448;51.660;5.824;2024-01-15T06:59:23;7.28;;;2.60;;
60502;SDS011;51448;51.660;5.824;2024-01-15T07:01:50;4.88;;;2.60;;
60502;SDS011;51448;51.660;5.824;2024-01-15T07:04:18;4.40;;;2.63;;
60502;SDS011;51448;51.660;5.824;2024-01-15T07:06:49;9.23;;;3.10;;
60502;SDS011;51448;51.660;5.824;2024-01-15T07:09:17;5.13;;;2.95;;
60502;SDS011;51448;51.660;5.824;2024-01-15T07:11:45;7.22;;;3.38;;
60502;SDS011;51448;51.660;5.824;2024-01-15T07:14:16;5.72;;;3.30;;
60502;SDS011;51448;51.660;5.824;2024-01-15T07:16:43;5.30;;;3.85;;
60502;SDS011;51448;51.660;5.824;2024-01-15T07:19:14;7.40;;;4.60;;
60502;SDS011;51448;51.660;5.824;2024-01-15T07:21:42;9.02;;;4.53;;
60502;SDS011;51448;51.660;5.824;2024-01-15T07:24:10;5.22;;;3.97;;
60502;SDS011;51448;51.660;5.824;2024-01-15T07:26:38;12.93;;;5.47;;
60502;SDS011;51448;51.660;5.824;2024-01-15T07:29:06;10.50;;;5.45;;
60502;SDS011;51448;51.660;5.824;2024-01-15T07:31:33;8.20;;;4.93;;
60502;SDS011;51448;51.660;5.824;2024-01-15T07:34:01;7.78;;;5.00;;
60502;SDS011;51448;51.660;5.824;2024-01-15T07:36:29;11.55;;;6.47;;
60502;SDS011;51448;51.660;5.824;2024-01-15T07:38:56;10.20;;;5.30;;
60502;SDS011;51448;51.660;5.824;2024-01-15T07:41:24;11.25;;;5.47;;
60502;SDS011;51448;51.660;5.824;2024-01-15T07:43:52;10.77;;;6.30;;
60502;SDS011;51448;51.660;5.824;2024-01-15T07:46:19;8.70;;;5.90;;
60502;SDS011;51448;51.660;5.824;2024-01-15T07:48:47;8.75;;;5.53;;
60502;SDS011;51448;51.660;5.824;2024-01-15T07:51:15;10.00;;;6.40;;
60502;SDS011;51448;51.660;5.824;2024-01-15T07:53:42;8.85;;;5.93;;
60502;SDS011;51448;51.660;5.824;2024-01-15T07:56:10;6.78;;;5.28;;
60502;SDS011;51448;51.660;5.824;2024-01-15T07:58:37;8.52;;;5.78;;
60502;SDS011;51448;51.660;5.824;2024-01-15T08:01:05;9.82;;;5.75;;
60502;SDS011;51448;51.660;5.824;2024-01-15T08:03:34;9.05;;;5.45;;
60502;SDS011;51448;51.660;5.824;2024-01-15T08:06:01;10.23;;;6.10;;
60502;SDS011;51448;51.660;5.824;2024-01-15T08:08:29;8.57;;;5.70;;
60502;SDS011;51448;51.660;5.824;2024-01-15T08:10:56;8.93;;;5.10;;
60502;SDS011;51448;51.660;5.824;2024-01-15T08:13:26;8.02;;;4.95;;
60502;SDS011;51448;51.660;5.824;2024-01-15T08:15:54;6.53;;;4.50;;
60502;SDS011;51448;51.660;5.824;2024-01-15T08:18:22;7.25;;;4.55;;
60502;SDS011;51448;51.660;5.824;2024-01-15T08:20:50;5.50;;;4.03;;
60502;SDS011;51448;51.660;5.824;2024-01-15T08:23:18;7.07;;;4.35;;
60502;SDS011;51448;51.660;5.824;2024-01-15T08:25:47;6.32;;;4.50;;
60502;SDS011;51448;51.660;5.824;2024-01-15T08:28:14;7.20;;;4.72;;
60502;SDS011;51448;51.660;5.824;2024-01-15T08:30:42;5.75;;;3.88;;
60502;SDS011;51448;51.660;5.824;2024-01-15T08:33:09;5.88;;;4.20;;
60502;SDS011;51448;51.660;5.824;2024-01-15T08:35:48;7.78;;;4.35;;
60502;SDS011;51448;51.660;5.824;2024-01-15T08:38:15;6.55;;;4.68;;
60502;SDS011;51448;51.660;5.824;2024-01-15T08:40:43;9.27;;;5.47;;
60502;SDS011;51448;51.660;5.824;2024-01-15T08:43:11;6.72;;;4.85;;
60502;SDS011;51448;51.660;5.824;2024-01-15T08:45:39;7.47;;;5.05;;
60502;SDS011;51448;51.660;5.824;2024-01-15T08:48:07;5.00;;;4.20;;
60502;SDS011;51448;51.660;5.824;2024-01-15T08:50:34;6.63;;;4.35;;
60502;SDS011;51448;51.660;5.824;2024-01-15T08:53:02;4.95;;;3.95;;
60502;SDS011;51448;51.660;5.824;2024-01-15T08:55:30;7.05;;;3.72;;
60502;SDS011;51448;51.660;5.824;2024-01-15T08:57:58;5.53;;;3.67;;
60502;SDS011;51448;51.660;5.824;2024-01-15T09:00:26;6.32;;;3.90;;
60502;SDS011;51448;51.660;5.824;2024-01-15T09:02:53;6.25;;;3.28;;
60502;SDS011;51448;51.660;5.824;2024-01-15T09:05:21;6.30;;;3.70;;
60502;SDS011;51448;51.660;5.824;2024-01-15T09:07:48;6.30;;;2.83;;
60502;SDS011;51448;51.660;5.824;2024-01-15T09:10:19;3.13;;;2.40;;
60502;SDS011;51448;51.660;5.824;2024-01-15T09:12:47;6.60;;;2.38;;
60502;SDS011;51448;51.660;5.824;2024-01-15T09:15:16;3.97;;;2.15;;
60502;SDS011;51448;51.660;5.824;2024-01-15T09:17:44;4.20;;;1.90;;
60502;SDS011;51448;51.660;5.824;2024-01-15T09:20:13;7.15;;;1.73;;
60502;SDS011;51448;51.660;5.824;2024-01-15T09:22:40;3.55;;;1.73;;
60502;SDS011;51448;51.660;5.824;2024-01-15T09:25:09;3.53;;;1.90;;
60502;SDS011;51448;51.660;5.824;2024-01-15T09:27:37;3.83;;;3.17;;
60502;SDS011;51448;51.660;5.824;2024-01-15T09:30:05;12.07;;;6.57;;
60502;SDS011;51448;51.660;5.824;2024-01-15T09:32:33;8.27;;;6.38;;
60502;SDS011;51448;51.660;5.824;2024-01-15T09:35:01;5.78;;;4.13;;
60502;SDS011;51448;51.660;5.824;2024-01-15T09:37:29;5.32;;;3.53;;
60502;SDS011;51448;51.660;5.824;2024-01-15T09:40:13;5.10;;;3.63;;
60502;SDS011;51448;51.660;5.824;2024-01-15T09:42:42;5.60;;;3.33;;
60502;SDS011;51448;51.660;5.824;2024-01-15T09:45:11;7.15;;;3.80;;
60502;SDS011;51448;51.660;5.824;2024-01-15T09:47:40;9.00;;;4.15;;
60502;SDS011;51448;51.660;5.824;2024-01-15T09:50:13;17.25;;;8.07;;
60502;SDS011;51448;51.660;5.824;2024-01-15T09:52:43;9.98;;;5.55;;
60502;SDS011;51448;51.660;5.824;2024-01-15T09:55:13;5.93;;;3.88;;
60502;SDS011;51448;51.660;5.824;2024-01-15T09:57:43;4.85;;;4.20;;
60502;SDS011;51448;51.660;5.824;2024-01-15T10:00:14;5.47;;;4.88;;
60502;SDS011;51448;51.660;5.824;2024-01-15T10:02:45;5.60;;;5.10;;
60502;SDS011;51448;51.660;5.824;2024-01-15T10:05:13;8.18;;;6.30;;
60502;SDS011;51448;51.660;5.824;2024-01-15T10:07:41;9.50;;;6.95;;
60502;SDS011;51448;51.660;5.824;2024-01-15T10:10:10;11.50;;;7.05;;
60502;SDS011;51448;51.660;5.824;2024-01-15T10:12:39;11.30;;;7.03;;
60502;SDS011;51448;51.660;5.824;2024-01-15T10:15:11;7.72;;;6.65;;
60502;SDS011;51448;51.660;5.824;2024-01-15T10:17:42;9.63;;;7.00;;
60502;SDS011;51448;51.660;5.824;2024-01-15T10:20:10;9.80;;;6.70;;
60502;SDS011;51448;51.660;5.824;2024-01-15T10:22:40;9.38;;;6.40;;
60502;SDS011;51448;51.660;5.824;2024-01-15T10:25:10;10.63;;;6.20;;
60502;SDS011;51448;51.660;5.824;2024-01-15T10:27:40;9.68;;;5.53;;
60502;SDS011;51448;51.660;5.824;2024-01-15T10:30:09;8.18;;;5.82;;
60502;SDS011;51448;51.660;5.824;2024-01-15T10:32:40;12.02;;;4.47;;
60502;SDS011;51448;51.660;5.824;2024-01-15T10:35:08;9.60;;;4.15;;
60502;SDS011;51448;51.660;5.824;2024-01-15T10:37:36;12.52;;;4.15;;
60502;SDS011;51448;51.660;5.824;2024-01-15T10:40:04;6.75;;;2.90;;
60502;SDS011;51448;51.660;5.824;2024-01-15T10:42:33;5.90;;;2.97;;
60502;SDS011;51448;51.660;5.824;2024-01-15T10:45:01;7.22;;;2.72;;
60502;SDS011;51448;51.660;5.824;2024-01-15T10:47:28;5.03;;;2.40;;
60502;SDS011;51448;51.660;5.824;2024-01-15T10:49:58;7.05;;;1.80;;
60502;SDS011;51448;51.660;5.824;2024-01-15T10:52:27;4.07;;;1.50;;
60502;SDS011;51448;51.660;5.824;2024-01-15T10:54:56;4.57;;;2.10;;
60502;SDS011;51448;51.660;5.824;2024-01-15T10:57:36;6.13;;;1.70;;
60502;SDS011;51448;51.660;5.824;2024-01-15T11:00:05;7.78;;;1.80;;
60502;SDS011;51448;51.660;5.824;2024-01-15T11:02:42;8.95;;;2.38;;
60502;SDS011;51448;51.660;5.824;2024-01-15T11:05:10;4.88;;;1.60;;
60502;SDS011;51448;51.660;5.824;2024-01-15T11:07:39;4.30;;;1.60;;
60502;SDS011;51448;51.660;5.824;2024-01-15T11:10:09;6.38;;;1.90;;
60502;SDS011;51448;51.660;5.824;2024-01-15T11:13:39;7.07;;;1.50;;
60502;SDS011;51448;51.660;5.824;2024-01-15T11:16:12;4.75;;;1.23;;
60502;SDS011;51448;51.660;5.824;2024-01-15T11:18:42;5.05;;;1.88;;
60502;SDS011;51448;51.660;5.824;2024-01-15T11:21:33;3.95;;;1.25;;
60502;SDS011;51448;51.660;5.824;2024-01-15T11:24:09;4.55;;;1.25;;
60502;SDS011;51448;51.660;5.824;2024-01-15T11:26:45;5.85;;;1.90;;
60502;SDS011;51448;51.660;5.824;2024-01-15T11:37:21;3.17;;;1.60;;
60502;SDS011;51448;51.660;5.824;2024-01-15T11:39:51;4.20;;;1.33;;
60502;SDS011;51448;51.660;5.824;2024-01-15T11:42:21;5.15;;;2.15;;
60502;SDS011;51448;51.660;5.824;2024-01-15T11:44:50;4.38;;;1.85;;
60502;SDS011;51448;51.660;5.824;2024-01-15T11:47:27;6.90;;;1.98;;
60502;SDS011;51448;51.660;5.824;2024-01-15T11:50:21;4.35;;;2.03;;
60502;SDS011;51448;51.660;5.824;2024-01-15T11:52:56;7.22;;;2.38;;
60502;SDS011;51448;51.660;5.824;2024-01-15T11:55:38;4.45;;;1.83;;
60502;SDS011;51448;51.660;5.824;2024-01-15T11:58:14;6.60;;;1.73;;
60502;SDS011;51448;51.660;5.824;2024-01-15T12:00:44;5.55;;;1.70;;
60502;SDS011;51448;51.660;5.824;2024-01-15T12:03:14;7.05;;;2.17;;
60502;SDS011;51448;51.660;5.824;2024-01-15T12:05:42;6.78;;;2.92;;
60502;SDS011;51448;51.660;5.824;2024-01-15T12:08:10;4.30;;;2.47;;
60502;SDS011;51448;51.660;5.824;2024-01-15T12:10:39;7.05;;;2.30;;
60502;SDS011;51448;51.660;5.824;2024-01-15T12:13:09;5.22;;;2.20;;
60502;SDS011;51448;51.660;5.824;2024-01-15T12:15:40;5.20;;;2.80;;
60502;SDS011;51448;51.660;5.824;2024-01-15T12:18:13;5.53;;;2.28;;
60502;SDS011;51448;51.660;5.824;2024-01-15T12:23:26;8.50;;;2.37;;
60502;SDS011;51448;51.660;5.824;2024-01-15T12:25:55;4.85;;;2.00;;
60502;SDS011;51448;51.660;5.824;2024-01-15T12:28:22;3.58;;;1.50;;
60502;SDS011;51448;51.660;5.824;2024-01-15T12:30:50;3.38;;;1.70;;
60502;SDS011;51448;51.660;5.824;2024-01-15T12:33:18;4.85;;;1.52;;
60502;SDS011;51448;51.660;5.824;2024-01-15T12:35:47;2.10;;;1.52;;
60502;SDS011;51448;51.660;5.824;2024-01-15T12:38:18;7.05;;;1.60;;
60502;SDS011;51448;51.660;5.824;2024-01-15T12:40:47;4.00;;;1.15;;
60502;SDS011;51448;51.660;5.824;2024-01-15T12:43:15;4.65;;;1.45;;
60502;SDS011;51448;51.660;5.824;2024-01-15T12:45:44;2.97;;;0.98;;
60502;SDS011;51448;51.660;5.824;2024-01-15T12:48:13;1.75;;;1.10;;
60502;SDS011;51448;51.660;5.824;2024-01-15T12:53:15;4.63;;;1.45;;
60502;SDS011;51448;51.660;5.824;2024-01-15T12:55:42;2.90;;;1.27;;
60502;SDS011;51448;51.660;5.824;2024-01-15T12:58:13;3.25;;;0.95;;
60502;SDS011;51448;51.660;5.824;2024-01-15T13:00:42;2.85;;;0.95;;
60502;SDS011;51448;51.660;5.824;2024-01-15T13:03:10;2.47;;;0.98;;
60502;SDS011;51448;51.660;5.824;2024-01-15T13:05:38;2.28;;;0.90;;
60502;SDS011;51448;51.660;5.824;2024-01-15T13:08:08;4.70;;;1.08;;
60502;SDS011;51448;51.660;5.824;2024-01-15T13:10:36;6.53;;;1.23;;
60502;SDS011;51448;51.660;5.824;2024-01-15T13:13:04;2.00;;;1.08;;
60502;SDS011;51448;51.660;5.824;2024-01-15T13:15:32;2.63;;;1.00;;
60502;SDS011;51448;51.660;5.824;2024-01-15T13:18:00;1.83;;;1.13;;
60502;SDS011;51448;51.660;5.824;2024-01-15T13:20:28;2.33;;;1.55;;
60502;SDS011;51448;51.660;5.824;2024-01-15T13:22:56;5.75;;;2.70;;
60502;SDS011;51448;51.660;5.824;2024-01-15T13:25:23;3.40;;;1.40;;
60502;SDS011;51448;51.660;5.824;2024-01-15T13:27:52;3.33;;;1.80;;
60502;SDS011;51448;51.660;5.824;2024-01-15T13:30:19;3.00;;;1.45;;
60502;SDS011;51448;51.660;5.824;2024-01-15T13:32:50;4.60;;;1.80;;
60502;SDS011;51448;51.660;5.824;2024-01-15T13:35:18;4.13;;;1.48;;
60502;SDS011;51448;51.660;5.824;2024-01-15T13:37:46;6.20;;;2.17;;
60502;SDS011;51448;51.660;5.824;2024-01-15T13:40:13;4.50;;;1.55;;
60502;SDS011;51448;51.660;5.824;2024-01-15T13:42:48;4.75;;;1.55;;
60502;SDS011;51448;51.660;5.824;2024-01-15T13:45:17;3.13;;;1.42;;
60502;SDS011;51448;51.660;5.824;2024-01-15T13:47:48;3.63;;;1.45;;
60502;SDS011;51448;51.660;5.824;2024-01-15T13:50:15;9.38;;;3.10;;
60502;SDS011;51448;51.660;5.824;2024-01-15T13:52:43;2.25;;;1.52;;
60502;SDS011;51448;51.660;5.824;2024-01-15T13:55:11;5.15;;;1.30;;
60502;SDS011;51448;51.660;5.824;2024-01-15T13:57:38;2.60;;;1.15;;
60502;SDS011;51448;51.660;5.824;2024-01-15T14:00:06;2.25;;;1.13;;
60502;SDS011;51448;51.660;5.824;2024-01-15T14:02:39;3.60;;;1.58;;
60502;SDS011;51448;51.660;5.824;2024-01-15T14:05:07;2.95;;;1.30;;
60502;SDS011;51448;51.660;5.824;2024-01-15T14:07:35;3.45;;;1.35;;
60502;SDS011;51448;51.660;5.824;2024-01-15T14:10:03;4.38;;;0.98;;
60502;SDS011;51448;51.660;5.824;2024-01-15T14:12:31;3.90;;;1.10;;
60502;SDS011;51448;51.660;5.824;2024-01-15T14:15:03;6.20;;;1.70;;
60502;SDS011;51448;51.660;5.824;2024-01-15T14:20:00;3.33;;;1.17;;
60502;SDS011;51448;51.660;5.824;2024-01-15T14:22:28;3.60;;;1.10;;
60502;SDS011;51448;51.660;5.824;2024-01-15T14:24:55;5.55;;;1.42;;
60502;SDS011;51448;51.660;5.824;2024-01-15T14:27:23;4.78;;;1.90;;
60502;SDS011;51448;51.660;5.824;2024-01-15T14:29:51;4.32;;;1.88;;
60502;SDS011;51448;51.660;5.824;2024-01-15T14:32:19;5.45;;;2.33;;
60502;SDS011;51448;51.660;5.824;2024-01-15T14:34:46;6.20;;;2.17;;
60502;SDS011;51448;51.660;5.824;2024-01-15T14:37:15;5.63;;;2.08;;
60502;SDS011;51448;51.660;5.824;2024-01-15T14:39:50;4.72;;;1.50;;
60502;SDS011;51448;51.660;5.824;2024-01-15T14:42:18;5.68;;;1.98;;
60502;SDS011;51448;51.660;5.824;2024-01-15T14:44:45;7.30;;;1.80;;
60502;SDS011;51448;51.660;5.824;2024-01-15T14:47:13;4.40;;;1.90;;
60502;SDS011;51448;51.660;5.824;2024-01-15T14:49:40;6.03;;;2.42;;
60502;SDS011;51448;51.660;5.824;2024-01-15T14:52:08;6.70;;;2.60;;
60502;SDS011;51448;51.660;5.824;2024-01-15T14:54:36;5.97;;;2.88;;
60502;SDS011;51448;51.660;5.824;2024-01-15T14:57:03;5.85;;;2.83;;
60502;SDS011;51448;51.660;5.824;2024-01-15T14:59:31;8.15;;;2.17;;
60502;SDS011;51448;51.660;5.824;2024-01-15T15:01:59;9.05;;;1.90;;
60502;SDS011;51448;51.660;5.824;2024-01-15T15:04:27;8.57;;;2.42;;
60502;SDS011;51448;51.660;5.824;2024-01-15T15:06:56;4.90;;;2.17;;
60502;SDS011;51448;51.660;5.824;2024-01-15T15:09:24;6.70;;;1.90;;